createdAt,value
2022-11-21T00:01:29.408Z,13.98
2022-11-21T00:03:57.299Z,12.57
2022-11-21T00:06:25.114Z,14.18
2022-11-21T00:08:54.652Z,13.70
2022-11-21T00:11:22.977Z,13.90
2022-11-21T00:13:53.397Z,14.52
2022-11-21T00:16:22.640Z,14.07
2022-11-21T00:18:52.093Z,13.98
2022-11-21T00:21:22.936Z,13.68
2022-11-21T00:23:54.910Z,14.45
2022-11-21T00:26:22.895Z,13.50
2022-11-21T00:28:50.664Z,13.43
2022-11-21T00:31:22.251Z,13.80
2022-11-21T00:33:50.615Z,13.82
2022-11-21T00:36:18.323Z,14.10
2022-11-21T00:38:46.113Z,14.60
2022-11-21T00:41:14.155Z,15.02
2022-11-21T00:43:41.975Z,14.50
2022-11-21T00:46:09.681Z,14.73
2022-11-21T00:48:37.419Z,14.18
2022-11-21T00:51:06.738Z,14.77
2022-11-21T00:53:34.457Z,14.68
2022-11-21T00:56:02.215Z,14.60
2022-11-21T00:58:29.946Z,13.68
2022-11-21T01:01:09.428Z,14.73
2022-11-21T01:03:37.185Z,14.10
2022-11-21T01:06:07.351Z,15.52
2022-11-21T01:08:38.567Z,14.98
2022-11-21T01:11:08.599Z,15.18
2022-11-21T01:13:40.265Z,15.30
2022-11-21T01:16:14.303Z,14.15
2022-11-21T01:18:42.563Z,14.85
2022-11-21T01:21:17.868Z,15.65
2022-11-21T01:23:47.968Z,14.15
2022-11-21T01:26:19.953Z,14.15
2022-11-21T01:28:47.938Z,15.80
2022-11-21T01:31:22.817Z,15.13
2022-11-21T01:33:51.261Z,16.67
2022-11-21T01:36:26.113Z,15.55
2022-11-21T01:38:58.846Z,16.13
2022-11-21T01:41:34.632Z,15.95
2022-11-21T01:44:04.412Z,16.48
2022-11-21T01:46:32.094Z,16.73
2022-11-21T01:49:08.138Z,15.98
2022-11-21T01:51:50.524Z,16.15
2022-11-21T01:54:29.235Z,16.75
2022-11-21T01:57:05.896Z,17.15
2022-11-21T01:59:47.430Z,15.55
2022-11-21T02:02:22.278Z,18.13
2022-11-21T02:04:55.435Z,15.02
2022-11-21T02:09:59.788Z,15.85
2022-11-21T02:12:36.421Z,15.65
2022-11-21T02:15:32.512Z,15.15
2022-11-21T02:18:01.544Z,14.88
2022-11-21T02:20:31.935Z,15.10
2022-11-21T02:23:20.181Z,15.43
2022-11-21T02:25:53.024Z,15.77
2022-11-21T02:30:49.354Z,15.63
2022-11-21T02:33:17.082Z,15.20
2022-11-21T02:35:45.046Z,14.95
2022-11-21T02:38:25.288Z,14.27
2022-11-21T02:41:18.347Z,14.23
2022-11-21T02:43:51.387Z,14.73
2022-11-21T02:46:19.051Z,14.07
2022-11-21T02:48:47.124Z,14.13
2022-11-21T02:51:15.174Z,14.25
2022-11-21T02:53:42.913Z,14.25
2022-11-21T02:56:10.621Z,15.77
2022-11-21T02:58:38.423Z,14.80
2022-11-21T03:01:06.270Z,14.45
2022-11-21T03:03:34.046Z,15.05
2022-11-21T03:06:02.120Z,15.85
2022-11-21T03:08:29.860Z,13.88
2022-11-21T03:10:57.591Z,15.20
2022-11-21T03:13:25.359Z,14.32
2022-11-21T03:15:55.546Z,13.23
2022-11-21T03:18:23.257Z,13.98
2022-11-21T03:20:50.729Z,13.35
2022-11-21T03:23:18.429Z,12.82
2022-11-21T03:25:46.221Z,13.02
2022-11-21T03:28:14.002Z,13.30
2022-11-21T03:30:41.734Z,12.95
2022-11-21T03:33:09.413Z,13.32
2022-11-21T03:35:37.102Z,13.55
2022-11-21T03:38:04.756Z,13.23
2022-11-21T03:40:32.549Z,14.40
2022-11-21T03:43:06.086Z,13.75
2022-11-21T03:45:33.816Z,14.07
2022-11-21T03:48:01.963Z,14.13
2022-11-21T03:50:29.663Z,14.27
2022-11-21T03:52:57.467Z,13.45
2022-11-21T03:55:25.213Z,13.00
2022-11-21T03:57:52.850Z,13.65
2022-11-21T04:00:20.619Z,13.18
2022-11-21T04:02:48.304Z,13.75
2022-11-21T04:05:15.951Z,13.70
2022-11-21T04:07:43.789Z,13.13
2022-11-21T04:10:11.756Z,13.02
2022-11-21T04:12:40.219Z,12.68
2022-11-21T04:15:13.157Z,12.43
2022-11-21T04:17:41.693Z,11.88
2022-11-21T04:20:09.881Z,12.20
2022-11-21T04:22:37.699Z,12.10
2022-11-21T04:25:05.599Z,12.23
2022-11-21T04:27:33.225Z,12.45
2022-11-21T04:30:00.887Z,11.68
2022-11-21T04:32:29.072Z,12.38
2022-11-21T04:34:56.836Z,12.32
2022-11-21T04:37:24.611Z,12.38
2022-11-21T04:39:52.650Z,12.52
2022-11-21T04:42:20.360Z,11.77
2022-11-21T04:44:48.074Z,11.07
2022-11-21T04:47:15.743Z,12.05
2022-11-21T04:49:43.517Z,12.75
2022-11-21T04:52:12.450Z,12.38
2022-11-21T04:54:40.200Z,11.43
2022-11-21T04:57:08.543Z,13.02
2022-11-21T04:59:36.494Z,11.95
2022-11-21T05:02:04.385Z,11.68
2022-11-21T05:04:32.072Z,12.45
2022-11-21T05:06:59.912Z,12.30
2022-11-21T05:09:27.672Z,12.45
2022-11-21T05:12:10.553Z,12.07
2022-11-21T05:14:38.476Z,12.05
2022-11-21T05:17:06.164Z,11.60
2022-11-21T05:19:33.973Z,12.73
2022-11-21T05:22:01.611Z,11.85
2022-11-21T05:24:29.724Z,11.55
2022-11-21T05:26:57.593Z,12.45
2022-11-21T05:29:28.273Z,12.77
2022-11-21T05:31:56.437Z,12.93
2022-11-21T05:34:24.076Z,13.45
2022-11-21T05:36:58.658Z,12.20
2022-11-21T05:39:27.056Z,12.15
2022-11-21T05:41:59.771Z,13.25
2022-11-21T05:44:30.863Z,13.13
2022-11-21T05:46:58.657Z,12.93
2022-11-21T05:49:26.363Z,12.00
2022-11-21T05:51:54.119Z,12.48
2022-11-21T05:54:23.278Z,12.88
2022-11-21T05:56:51.113Z,13.88
2022-11-21T05:59:18.747Z,12.38
2022-11-21T06:02:01.690Z,13.40
2022-11-21T06:04:29.839Z,13.77
2022-11-21T06:06:58.286Z,12.75
2022-11-21T06:09:26.054Z,12.65
2022-11-21T06:11:53.740Z,13.82
2022-11-21T06:14:21.517Z,14.18
2022-11-21T06:16:49.146Z,13.93
2022-11-21T06:19:17.007Z,16.45
2022-11-21T06:21:44.656Z,14.73
2022-11-21T06:24:12.611Z,15.80
2022-11-21T06:26:40.906Z,16.10
2022-11-21T06:29:11.783Z,15.30
2022-11-21T06:31:39.613Z,15.38
2022-11-21T06:34:07.354Z,15.85
2022-11-21T06:36:35.727Z,16.20
2022-11-21T06:39:03.485Z,15.57
2022-11-21T06:41:31.078Z,15.35
2022-11-21T06:44:01.581Z,16.35
2022-11-21T06:46:29.274Z,15.25
2022-11-21T06:48:57.057Z,16.92
2022-11-21T06:51:26.132Z,17.02
2022-11-21T06:53:56.159Z,16.30
2022-11-21T06:56:26.006Z,16.50
2022-11-21T06:58:54.236Z,16.80
2022-11-21T07:01:22.039Z,16.52
2022-11-21T07:03:49.870Z,16.02
2022-11-21T07:06:17.514Z,17.23
2022-11-21T07:08:45.279Z,15.57
2022-11-21T07:11:25.032Z,15.23
2022-11-21T07:13:56.660Z,16.48
2022-11-21T07:16:26.577Z,15.35
2022-11-21T07:18:54.350Z,15.75
2022-11-21T07:21:22.076Z,14.45
2022-11-21T07:23:49.842Z,15.02
2022-11-21T07:26:17.518Z,15.02
2022-11-21T07:28:45.286Z,15.55
2022-11-21T07:31:14.331Z,15.68
2022-11-21T07:33:43.856Z,15.48
2022-11-21T07:36:12.502Z,15.90
2022-11-21T07:38:41.892Z,15.10
2022-11-21T07:41:10.089Z,15.85
2022-11-21T07:43:37.825Z,14.95
2022-11-21T07:46:05.485Z,16.23
2022-11-21T07:48:33.231Z,15.82
2022-11-21T07:51:04.973Z,15.30
2022-11-21T07:53:32.683Z,14.85
2022-11-21T07:56:01.123Z,14.40
2022-11-21T07:58:30.851Z,15.32
2022-11-21T08:00:58.563Z,16.20
2022-11-21T08:03:26.569Z,14.65
2022-11-21T08:05:54.299Z,14.82
2022-11-21T08:08:24.752Z,15.57
2022-11-21T08:10:53.103Z,14.77
2022-11-21T08:13:21.887Z,14.20
2022-11-21T08:15:50.755Z,14.68
2022-11-21T08:18:20.006Z,14.50
2022-11-21T08:20:48.391Z,15.02
2022-11-21T08:23:16.849Z,15.23
2022-11-21T08:25:45.378Z,13.50
2022-11-21T08:28:13.452Z,14.32
2022-11-21T08:30:41.591Z,14.40
2022-11-21T08:33:09.432Z,14.40
2022-11-21T08:35:38.576Z,13.30
2022-11-21T08:38:06.777Z,15.23
2022-11-21T08:40:35.265Z,15.07
2022-11-21T08:43:05.241Z,15.68
2022-11-21T08:45:34.166Z,14.38
2022-11-21T08:48:01.950Z,14.15
2022-11-21T08:50:29.850Z,14.95
2022-11-21T08:53:02.079Z,14.90
2022-11-21T08:55:30.504Z,14.32
2022-11-21T08:57:58.627Z,13.63
2022-11-21T09:00:26.720Z,15.05
2022-11-21T09:02:54.800Z,14.68
2022-11-21T09:05:22.691Z,14.45
2022-11-21T09:07:56.670Z,15.30
2022-11-21T09:10:24.906Z,14.65
2022-11-21T09:12:52.987Z,14.25
2022-11-21T09:15:36.124Z,14.02
2022-11-21T09:20:34.705Z,14.38
2022-11-21T09:23:07.039Z,14.82
2022-11-21T09:25:35.471Z,14.93
2022-11-21T09:28:04.352Z,14.73
2022-11-21T09:30:32.093Z,16.02
2022-11-21T09:33:02.579Z,15.52
2022-11-21T09:35:30.559Z,14.75
2022-11-21T09:37:58.989Z,14.35
2022-11-21T09:40:27.768Z,14.50
2022-11-21T09:43:16.740Z,14.10
2022-11-21T09:45:49.827Z,13.80
2022-11-21T09:48:26.415Z,13.38
2022-11-21T09:51:00.952Z,15.00
2022-11-21T09:53:35.382Z,16.38
2022-11-21T09:56:14.911Z,14.43
2022-11-21T09:59:06.452Z,13.10
2022-11-21T10:01:34.369Z,13.65
2022-11-21T10:04:04.081Z,13.68
2022-11-21T10:06:39.233Z,12.80
2022-11-21T10:09:31.879Z,13.57
2022-11-21T10:12:37.897Z,13.47
2022-11-21T10:15:41.124Z,12.57
2022-11-21T10:18:32.226Z,12.43
2022-11-21T10:21:34.880Z,13.45
2022-11-21T10:24:24.234Z,13.80
2022-11-21T10:26:58.349Z,13.23
2022-11-21T10:29:35.269Z,12.05
2022-11-21T10:32:22.745Z,12.98
2022-11-21T10:34:53.645Z,13.43
2022-11-21T10:37:40.375Z,12.98
2022-11-21T10:40:19.280Z,12.63
2022-11-21T10:42:55.603Z,11.82
2022-11-21T10:45:23.788Z,11.40
2022-11-21T10:47:55.378Z,12.48
2022-11-21T10:50:40.713Z,12.02
2022-11-21T10:53:33.488Z,11.25
2022-11-21T10:56:10.708Z,10.65
2022-11-21T10:58:45.223Z,11.10
2022-11-21T11:01:22.299Z,10.52
2022-11-21T11:04:43.954Z,9.40
2022-11-21T11:07:26.808Z,9.63
2022-11-21T11:10:16.283Z,9.50
2022-11-21T11:13:01.651Z,8.98
2022-11-21T11:15:29.971Z,10.13
2022-11-21T11:18:05.591Z,9.10
2022-11-21T11:20:40.999Z,9.73
2022-11-21T11:23:28.437Z,8.93
2022-11-21T11:25:58.724Z,8.70
2022-11-21T11:28:33.854Z,8.65
2022-11-21T11:31:01.875Z,9.32
2022-11-21T11:33:50.886Z,8.90
2022-11-21T11:36:47.180Z,8.82
2022-11-21T11:39:28.772Z,8.55
2022-11-21T11:42:44.837Z,8.68
2022-11-21T11:45:42.325Z,8.80
2022-11-21T11:48:10.763Z,9.30
2022-11-21T11:50:58.007Z,8.80
2022-11-21T11:53:30.763Z,9.30
2022-11-21T11:56:08.544Z,9.25
2022-11-21T11:58:52.441Z,9.10
2022-11-21T12:01:30.599Z,9.70
2022-11-21T12:04:10.556Z,9.38
2022-11-21T12:10:01.669Z,9.93
2022-11-21T12:12:39.703Z,9.80
2022-11-21T12:15:48.294Z,10.32
2022-11-21T12:18:33.037Z,10.05
2022-11-21T12:21:18.872Z,10.63
2022-11-21T12:23:50.143Z,10.05
2022-11-21T12:26:54.611Z,10.13
2022-11-21T12:29:47.164Z,9.48
2022-11-21T12:32:40.425Z,9.37
2022-11-21T12:35:39.199Z,8.93
2022-11-21T12:38:41.925Z,9.38
2022-11-21T12:41:47.569Z,9.38
2022-11-21T12:44:50.203Z,9.70
2022-11-21T12:48:03.702Z,8.45
2022-11-21T12:50:56.440Z,8.45
2022-11-21T12:53:53.532Z,8.05
2022-11-21T12:56:36.832Z,9.90
2022-11-21T12:59:05.897Z,9.10
2022-11-21T13:01:45.989Z,9.15
2022-11-21T13:04:21.734Z,9.48
2022-11-21T13:06:51.292Z,8.85
2022-11-21T13:09:23.851Z,9.13
2022-11-21T13:12:12.993Z,8.80
2022-11-21T13:15:00.238Z,9.52
2022-11-21T13:17:53.050Z,9.10
2022-11-21T13:20:41.046Z,8.68
2022-11-21T13:23:40.151Z,8.85
2022-11-21T13:26:49.055Z,8.38
2022-11-21T13:29:17.244Z,9.15
2022-11-21T13:31:45.042Z,8.43
2022-11-21T13:34:36.620Z,8.48
2022-11-21T13:37:05.612Z,7.75
2022-11-21T13:39:35.534Z,8.32
2022-11-21T13:42:22.078Z,8.68
2022-11-21T13:44:51.136Z,9.38
2022-11-21T13:47:51.213Z,8.00
2022-11-21T13:50:39.820Z,9.57
2022-11-21T13:53:35.459Z,9.38
2022-11-21T13:56:26.167Z,9.45
2022-11-21T13:59:10.757Z,9.20
2022-11-21T14:02:09.444Z,9.25
2022-11-21T14:05:02.950Z,8.88
2022-11-21T14:07:35.254Z,9.15
2022-11-21T14:10:21.544Z,9.20
2022-11-21T14:12:51.276Z,8.88
2022-11-21T14:15:44.423Z,9.13
2022-11-21T14:18:27.674Z,8.65
2022-11-21T14:21:01.157Z,8.52
2022-11-21T14:23:33.126Z,8.63
2022-11-21T14:26:12.439Z,9.38
2022-11-21T14:28:40.527Z,8.82
2022-11-21T14:31:10.059Z,9.02
2022-11-21T14:33:40.111Z,10.32
2022-11-21T14:36:17.646Z,8.38
2022-11-21T14:39:34.576Z,9.48
2022-11-21T14:41:53.482Z,8.68
2022-11-21T14:44:23.252Z,9.15
2022-11-21T14:46:52.441Z,9.18
2022-11-21T14:49:23.374Z,9.80
2022-11-21T14:52:09.954Z,9.35
2022-11-21T14:55:27.973Z,9.90
2022-11-21T14:57:43.529Z,9.57
2022-11-21T15:03:04.995Z,10.65
2022-11-21T15:06:00.843Z,10.70
2022-11-21T15:09:14.780Z,9.90
2022-11-21T15:11:17.695Z,9.90
2022-11-21T15:14:14.261Z,9.98
2022-11-21T15:19:10.497Z,10.07
2022-11-21T15:21:46.486Z,10.67
2022-11-21T15:24:29.697Z,9.55
2022-11-21T15:26:57.960Z,10.45
2022-11-21T15:29:27.338Z,9.75
2022-11-21T15:32:15.805Z,10.88
2022-11-21T15:34:44.615Z,10.95
2022-11-21T15:37:16.556Z,10.20
2022-11-21T15:39:48.374Z,10.55
2022-11-21T15:42:37.729Z,10.77
2022-11-21T15:45:27.484Z,11.07
2022-11-21T15:47:56.934Z,10.48
2022-11-21T15:50:25.402Z,11.10
2022-11-21T15:52:53.408Z,10.82
2022-11-21T15:55:25.149Z,11.95
2022-11-21T15:57:53.139Z,11.60
2022-11-21T16:00:21.081Z,10.73
2022-11-21T16:02:49.078Z,10.63
2022-11-21T16:05:17.134Z,11.48
2022-11-21T16:07:45.678Z,11.27
2022-11-21T16:10:21.280Z,11.95
2022-11-21T16:12:54.242Z,10.70
2022-11-21T16:15:22.167Z,12.57
2022-11-21T16:17:50.090Z,13.07
2022-11-21T16:20:18.138Z,12.70
2022-11-21T16:22:50.021Z,13.15
2022-11-21T16:25:19.070Z,13.20
2022-11-21T16:27:47.340Z,12.80
2022-11-21T16:30:15.578Z,11.90
2022-11-21T16:32:43.590Z,12.00
2022-11-21T16:35:11.618Z,12.65
2022-11-21T16:37:40.095Z,12.80
2022-11-21T16:40:10.533Z,13.35
2022-11-21T16:42:38.469Z,12.95
2022-11-21T16:45:06.772Z,12.93
2022-11-21T16:47:37.875Z,12.88
2022-11-21T16:50:08.298Z,12.00
2022-11-21T16:52:36.692Z,11.65
2022-11-21T16:55:08.754Z,12.68
2022-11-21T16:57:37.012Z,11.93
2022-11-21T17:00:05.207Z,11.88
2022-11-21T17:02:33.116Z,12.52
2022-11-21T17:05:04.205Z,11.80
2022-11-21T17:07:33.123Z,12.32
2022-11-21T17:10:04.004Z,11.40
2022-11-21T17:12:39.196Z,11.77
2022-11-21T17:15:09.785Z,11.77
2022-11-21T17:17:37.867Z,12.10
2022-11-21T17:20:07.650Z,12.40
2022-11-21T17:22:39.696Z,11.73
2022-11-21T17:25:08.089Z,11.32
2022-11-21T17:27:37.677Z,12.57
2022-11-21T17:30:05.904Z,11.98
2022-11-21T17:32:36.578Z,11.30
2022-11-21T17:35:04.872Z,13.20
2022-11-21T17:37:35.467Z,13.18
2022-11-21T17:40:03.974Z,12.95
2022-11-21T17:42:34.871Z,12.98
2022-11-21T17:45:02.930Z,13.43
2022-11-21T17:47:34.361Z,13.07
2022-11-21T17:50:05.972Z,12.23
2022-11-21T17:52:36.650Z,13.07
2022-11-21T17:55:05.200Z,12.90
2022-11-21T17:57:33.663Z,13.75
2022-11-21T18:00:01.660Z,12.55
2022-11-21T18:02:31.919Z,13.25
2022-11-21T18:05:02.510Z,13.45
2022-11-21T18:07:31.790Z,14.13
2022-11-21T18:10:20.538Z,14.40
2022-11-21T18:12:48.767Z,13.68
2022-11-21T18:15:16.802Z,14.85
2022-11-21T18:17:44.647Z,15.52
2022-11-21T18:20:16.780Z,13.68
2022-11-21T18:22:45.893Z,16.13
2022-11-21T18:25:14.962Z,15.30
2022-11-21T18:27:43.074Z,14.98
2022-11-21T18:30:11.227Z,13.70
2022-11-21T18:32:39.375Z,14.95
2022-11-21T18:35:07.704Z,15.20
2022-11-21T18:37:35.731Z,14.70
2022-11-21T18:40:03.607Z,15.00
2022-11-21T18:42:34.717Z,15.90
2022-11-21T18:45:02.683Z,15.18
2022-11-21T18:47:31.711Z,14.73
2022-11-21T18:50:00.133Z,15.60
2022-11-21T18:52:28.120Z,15.13
2022-11-21T18:54:55.984Z,15.35
2022-11-21T18:57:24.208Z,15.73
2022-11-21T18:59:52.680Z,14.98
2022-11-21T19:02:20.778Z,15.73
2022-11-21T19:04:48.904Z,15.65
2022-11-21T19:07:16.959Z,15.82
2022-11-21T19:09:46.749Z,15.30
2022-11-21T19:12:14.706Z,15.82
2022-11-21T19:14:42.677Z,15.13
2022-11-21T19:17:10.991Z,13.95
2022-11-21T19:19:40.368Z,14.68
2022-11-21T19:22:09.935Z,14.05
2022-11-21T19:24:38.637Z,15.00
2022-11-21T19:27:09.908Z,14.77
2022-11-21T19:29:37.604Z,14.23
2022-11-21T19:32:05.405Z,15.18
2022-11-21T19:34:36.274Z,14.60
2022-11-21T19:37:04.958Z,16.10
2022-11-21T19:39:32.729Z,15.77
2022-11-21T19:42:00.359Z,16.20
2022-11-21T19:44:28.863Z,15.93
2022-11-21T19:47:00.135Z,16.55
2022-11-21T19:49:28.241Z,15.95
2022-11-21T19:51:56.147Z,15.20
2022-11-21T19:54:24.071Z,15.00
2022-11-21T19:56:51.726Z,14.48
2022-11-21T19:59:20.236Z,16.08
2022-11-21T20:01:52.430Z,15.35
2022-11-21T20:04:23.181Z,14.65
2022-11-21T20:06:50.949Z,15.93
2022-11-21T20:09:20.978Z,13.07
2022-11-21T20:11:51.087Z,14.93
2022-11-21T20:14:22.253Z,14.50
2022-11-21T20:16:53.112Z,14.20
2022-11-21T20:19:22.927Z,15.27
2022-11-21T20:21:50.885Z,15.02
2022-11-21T20:24:18.609Z,14.27
2022-11-21T20:26:46.723Z,15.15
2022-11-21T20:29:14.971Z,13.52
2022-11-21T20:31:43.344Z,14.70
2022-11-21T20:34:13.284Z,13.75
2022-11-21T20:36:44.698Z,13.82
2022-11-21T20:39:15.376Z,14.90
2022-11-21T20:41:43.886Z,14.27
2022-11-21T20:47:06.453Z,15.82
2022-11-21T20:49:34.540Z,14.50
2022-11-21T20:54:51.529Z,14.77
2022-11-21T20:57:19.545Z,14.07
2022-11-21T20:59:47.578Z,15.43
2022-11-21T21:02:15.954Z,16.30
2022-11-21T21:04:44.238Z,15.45
2022-11-21T21:07:13.897Z,14.82
2022-11-21T21:09:41.975Z,15.93
2022-11-21T21:12:09.950Z,15.45
2022-11-21T21:14:37.775Z,14.82
2022-11-21T21:17:05.745Z,14.95
2022-11-21T21:19:34.009Z,16.63
2022-11-21T21:22:01.935Z,15.77
2022-11-21T21:24:29.802Z,16.42
2022-11-21T21:26:57.557Z,14.82
2022-11-21T21:29:25.466Z,15.70
2022-11-21T21:31:53.294Z,15.10
2022-11-21T21:34:22.472Z,15.93
2022-11-21T21:36:51.407Z,16.15
2022-11-21T21:39:19.691Z,16.42
2022-11-21T21:41:48.026Z,15.32
2022-11-21T21:44:16.705Z,15.40
2022-11-21T21:46:44.825Z,16.33
2022-11-21T21:49:12.859Z,15.30
2022-11-21T21:51:43.731Z,16.83
2022-11-21T21:54:20.331Z,16.45
2022-11-21T21:56:48.668Z,17.92
2022-11-21T21:59:18.450Z,16.05
2022-11-21T22:01:46.488Z,16.52
2022-11-21T22:04:14.673Z,16.00
2022-11-21T22:06:42.513Z,14.20
2022-11-21T22:09:10.283Z,13.18
2022-11-21T22:11:39.169Z,12.57
2022-11-21T22:14:11.560Z,12.73
2022-11-21T22:16:39.400Z,13.27
2022-11-21T22:19:07.172Z,13.65
2022-11-21T22:21:36.931Z,12.85
2022-11-21T22:24:27.853Z,13.07
2022-11-21T22:26:56.069Z,13.30
2022-11-21T22:29:24.130Z,12.13
2022-11-21T22:31:52.103Z,9.85
2022-11-21T22:34:20.113Z,12.38
2022-11-21T22:36:48.209Z,13.32
2022-11-21T22:39:16.779Z,10.63
2022-11-21T22:41:44.493Z,12.65
2022-11-21T22:44:12.909Z,11.52
2022-11-21T22:46:40.660Z,11.82
2022-11-21T22:49:08.566Z,11.98
2022-11-21T22:51:36.287Z,13.73
2022-11-21T22:54:04.108Z,13.30
2022-11-21T22:56:34.582Z,13.18
2022-11-21T22:59:02.266Z,14.63
2022-11-21T23:01:30.565Z,13.65
2022-11-21T23:03:58.802Z,12.52
2022-11-21T23:06:27.416Z,14.15
2022-11-21T23:08:56.382Z,12.70
2022-11-21T23:11:27.995Z,12.80
2022-11-21T23:13:56.502Z,12.88
2022-11-21T23:16:24.498Z,14.43
2022-11-21T23:18:54.305Z,13.23
2022-11-21T23:21:22.740Z,14.45
2022-11-21T23:23:50.445Z,13.95
2022-11-21T23:26:18.356Z,13.73
2022-11-21T23:28:46.392Z,13.02
2022-11-21T23:31:14.392Z,13.55
2022-11-21T23:33:42.235Z,12.60
2022-11-21T23:36:10.020Z,13.15
2022-11-21T23:38:37.857Z,14.05
2022-11-21T23:41:05.797Z,12.55
2022-11-21T23:43:33.630Z,14.63
2022-11-21T23:46:01.398Z,13.65
2022-11-21T23:48:29.286Z,13.73
2022-11-21T23:50:57.103Z,13.63
2022-11-21T23:53:24.834Z,14.00
2022-11-21T23:55:52.642Z,14.05
2022-11-21T23:58:20.399Z,13.77
